Grimsley, Tennessee
Current Conditions -  °F | °C
As of 9:53 AM on Wednesday 22 Oct 2014 (Local Time) from KCSV Reporting Station
Scattered Clouds Scattered Clouds  
Wind Chill: 44°   Ceiling: Unl
Heat Index: 48°   Visibility: 10mi
Dew Point: 36°   Wind: 9mph
Humidity: 63%   Direction: 50°NE
Pressure: 30.22"   Gusts: NA
Location:  36.27°N, 84.98°W
Report Text: KCSV 221453Z AUTO 05008KT 10SM SCT020 09/02 A3022 RMK AO2 SLP232 T00890022 53002
Loading
Personal Weather Stations






























Interactive Weather Map New forecast layout! Learn more

10-Day Weather Forecast

Advertisements
Track Severe Weather on mobile